sensor_id;sensor_type;location;lat;lon;timestamp;pressure;altitude;pressure_sealevel;temperature;humidity
74524;BME280;63074;44.696;10.358;2023-05-07T00:00:59;99913.47;;;17.37;100.00
74524;BME280;63074;44.696;10.358;2023-05-07T00:03:26;99921.47;;;17.24;100.00
74524;BME280;63074;44.696;10.358;2023-05-07T00:05:53;99911.97;;;17.21;100.00
74524;BME280;63074;44.696;10.358;2023-05-07T00:08:19;99914.47;;;17.12;100.00
74524;BME280;63074;44.696;10.358;2023-05-07T00:10:46;99906.59;;;17.11;100.00
74524;BME280;63074;44.696;10.358;2023-05-07T00:13:12;99906.16;;;17.33;100.00
74524;BME280;63074;44.696;10.358;2023-05-07T00:15:39;99906.47;;;17.31;100.00
74524;BME280;63074;44.696;10.358;2023-05-07T00:18:05;99908.03;;;17.03;100.00
74524;BME280;63074;44.696;10.358;2023-05-07T00:20:31;99910.25;;;16.91;100.00
74524;BME280;63074;44.696;10.358;2023-05-07T00:22:57;99905.31;;;17.03;100.00
74524;BME280;63074;44.696;10.358;2023-05-07T00:25:23;99910.22;;;17.01;100.00
74524;BME280;63074;44.696;10.358;2023-05-07T00:27:49;99916.22;;;16.93;100.00
74524;BME280;63074;44.696;10.358;2023-05-07T00:30:16;99915.81;;;16.61;100.00
74524;BME280;63074;44.696;10.358;2023-05-07T00:32:42;99906.50;;;16.82;100.00
74524;BME280;63074;44.696;10.358;2023-05-07T00:35:11;99909.78;;;16.79;100.00
74524;BME280;63074;44.696;10.358;2023-05-07T00:37:37;99922.53;;;16.78;100.00
74524;BME280;63074;44.696;10.358;2023-05-07T00:40:04;99922.88;;;16.57;100.00
74524;BME280;63074;44.696;10.358;2023-05-07T00:42:32;99922.59;;;16.68;100.00
74524;BME280;63074;44.696;10.358;2023-05-07T00:44:59;99926.16;;;16.53;100.00
74524;BME280;63074;44.696;10.358;2023-05-07T00:47:26;99920.44;;;16.55;100.00
74524;BME280;63074;44.696;10.358;2023-05-07T00:49:52;99917.09;;;16.83;100.00
74524;BME280;63074;44.696;10.358;2023-05-07T00:52:20;99921.34;;;17.00;100.00
74524;BME280;63074;44.696;10.358;2023-05-07T00:54:47;99934.13;;;16.19;100.00
74524;BME280;63074;44.696;10.358;2023-05-07T00:57:14;99930.09;;;16.02;100.00
74524;BME280;63074;44.696;10.358;2023-05-07T00:59:40;99929.94;;;16.52;100.00
74524;BME280;63074;44.696;10.358;2023-05-07T01:02:07;99933.84;;;16.21;100.00
74524;BME280;63074;44.696;10.358;2023-05-07T01:04:34;99925.16;;;16.29;100.00
74524;BME280;63074;44.696;10.358;2023-05-07T01:07:01;99929.69;;;16.49;100.00
74524;BME280;63074;44.696;10.358;2023-05-07T01:09:29;99928.59;;;16.65;100.00
74524;BME280;63074;44.696;10.358;2023-05-07T01:11:56;99929.75;;;17.03;100.00
74524;BME280;63074;44.696;10.358;2023-05-07T01:14:24;99933.38;;;16.78;100.00
74524;BME280;63074;44.696;10.358;2023-05-07T01:16:51;99938.34;;;16.56;100.00
74524;BME280;63074;44.696;10.358;2023-05-07T01:19:18;99942.13;;;16.60;100.00
74524;BME280;63074;44.696;10.358;2023-05-07T01:21:48;99937.91;;;16.29;100.00
74524;BME280;63074;44.696;10.358;2023-05-07T01:24:15;99947.94;;;16.28;100.00
74524;BME280;63074;44.696;10.358;2023-05-07T01:26:42;99943.50;;;16.58;100.00
74524;BME280;63074;44.696;10.358;2023-05-07T01:29:08;99941.09;;;17.10;100.00
74524;BME280;63074;44.696;10.358;2023-05-07T01:31:35;99944.44;;;16.97;100.00
74524;BME280;63074;44.696;10.358;2023-05-07T01:34:02;99954.84;;;16.75;100.00
74524;BME280;63074;44.696;10.358;2023-05-07T01:36:30;99943.38;;;16.93;100.00
74524;BME280;63074;44.696;10.358;2023-05-07T01:38:58;99938.28;;;17.26;100.00
74524;BME280;63074;44.696;10.358;2023-05-07T01:41:24;99937.78;;;17.18;100.00
74524;BME280;63074;44.696;10.358;2023-05-07T01:43:52;99943.53;;;17.07;100.00
74524;BME280;63074;44.696;10.358;2023-05-07T01:46:20;99945.66;;;17.20;100.00
74524;BME280;63074;44.696;10.358;2023-05-07T01:48:46;99947.84;;;17.18;100.00
74524;BME280;63074;44.696;10.358;2023-05-07T01:51:12;99943.22;;;17.18;100.00
74524;BME280;63074;44.696;10.358;2023-05-07T01:53:40;99939.78;;;17.42;100.00
74524;BME280;63074;44.696;10.358;2023-05-07T01:56:11;99940.44;;;17.29;100.00
74524;BME280;63074;44.696;10.358;2023-05-07T01:58:37;99941.59;;;17.17;100.00
74524;BME280;63074;44.696;10.358;2023-05-07T02:01:03;99947.94;;;17.42;100.00
74524;BME280;63074;44.696;10.358;2023-05-07T02:03:30;99948.69;;;17.52;100.00
74524;BME280;63074;44.696;10.358;2023-05-07T02:05:56;99950.38;;;17.43;100.00
74524;BME280;63074;44.696;10.358;2023-05-07T02:08:22;99948.13;;;17.11;100.00
74524;BME280;63074;44.696;10.358;2023-05-07T02:10:48;99950.56;;;17.13;100.00
74524;BME280;63074;44.696;10.358;2023-05-07T02:13:15;99951.22;;;17.00;100.00
74524;BME280;63074;44.696;10.358;2023-05-07T02:15:42;99948.25;;;16.96;100.00
74524;BME280;63074;44.696;10.358;2023-05-07T02:18:08;99951.22;;;17.00;100.00
74524;BME280;63074;44.696;10.358;2023-05-07T02:20:35;99943.91;;;16.95;100.00
74524;BME280;63074;44.696;10.358;2023-05-07T02:23:01;99943.94;;;16.85;100.00
74524;BME280;63074;44.696;10.358;2023-05-07T02:25:27;99944.47;;;16.92;100.00
74524;BME280;63074;44.696;10.358;2023-05-07T02:27:55;99938.19;;;16.97;100.00
74524;BME280;63074;44.696;10.358;2023-05-07T02:30:21;99945.50;;;17.01;100.00
74524;BME280;63074;44.696;10.358;2023-05-07T02:32:47;99947.34;;;17.06;100.00
74524;BME280;63074;44.696;10.358;2023-05-07T02:35:14;99947.59;;;17.09;100.00
74524;BME280;63074;44.696;10.358;2023-05-07T02:37:40;99948.75;;;17.03;100.00
74524;BME280;63074;44.696;10.358;2023-05-07T02:40:07;99959.06;;;17.01;100.00
74524;BME280;63074;44.696;10.358;2023-05-07T02:42:33;99969.97;;;16.91;100.00
74524;BME280;63074;44.696;10.358;2023-05-07T02:44:59;99966.19;;;16.87;100.00
74524;BME280;63074;44.696;10.358;2023-05-07T02:47:26;99966.72;;;16.94;100.00
74524;BME280;63074;44.696;10.358;2023-05-07T02:49:55;99966.81;;;16.69;100.00
74524;BME280;63074;44.696;10.358;2023-05-07T02:52:22;99968.84;;;17.02;100.00
74524;BME280;63074;44.696;10.358;2023-05-07T02:54:48;99972.94;;;17.00;100.00
74524;BME280;63074;44.696;10.358;2023-05-07T02:57:14;99969.84;;;17.11;100.00
74524;BME280;63074;44.696;10.358;2023-05-07T02:59:41;99972.81;;;17.20;100.00
74524;BME280;63074;44.696;10.358;2023-05-07T03:02:07;99967.00;;;16.87;100.00
74524;BME280;63074;44.696;10.358;2023-05-07T03:04:33;99969.47;;;16.84;100.00
74524;BME280;63074;44.696;10.358;2023-05-07T03:06:59;99959.41;;;16.84;100.00
74524;BME280;63074;44.696;10.358;2023-05-07T03:09:26;99963.22;;;16.83;100.00
74524;BME280;63074;44.696;10.358;2023-05-07T03:11:52;99969.44;;;16.89;100.00
74524;BME280;63074;44.696;10.358;2023-05-07T03:14:18;99965.41;;;16.81;100.00
74524;BME280;63074;44.696;10.358;2023-05-07T03:16:44;99960.31;;;16.70;100.00
74524;BME280;63074;44.696;10.358;2023-05-07T03:19:10;99962.22;;;16.69;100.00
74524;BME280;63074;44.696;10.358;2023-05-07T03:21:37;99954.34;;;16.68;100.00
74524;BME280;63074;44.696;10.358;2023-05-07T03:24:03;99948.91;;;16.63;100.00
74524;BME280;63074;44.696;10.358;2023-05-07T03:26:29;99955.16;;;16.63;100.00
74524;BME280;63074;44.696;10.358;2023-05-07T03:28:55;99954.91;;;16.65;100.00
74524;BME280;63074;44.696;10.358;2023-05-07T03:31:21;99960.59;;;16.48;100.00
74524;BME280;63074;44.696;10.358;2023-05-07T03:33:55;99961.41;;;16.53;100.00
74524;BME280;63074;44.696;10.358;2023-05-07T03:36:23;99959.28;;;16.45;100.00
74524;BME280;63074;44.696;10.358;2023-05-07T03:38:49;99957.94;;;16.43;100.00
74524;BME280;63074;44.696;10.358;2023-05-07T03:41:16;99966.06;;;16.43;100.00
74524;BME280;63074;44.696;10.358;2023-05-07T03:43:42;99973.94;;;16.44;100.00
74524;BME280;63074;44.696;10.358;2023-05-07T03:46:08;99976.66;;;16.29;100.00
74524;BME280;63074;44.696;10.358;2023-05-07T03:48:34;99974.75;;;16.40;100.00
74524;BME280;63074;44.696;10.358;2023-05-07T03:51:01;99975.09;;;16.03;100.00
74524;BME280;63074;44.696;10.358;2023-05-07T03:53:27;99978.88;;;15.66;100.00
74524;BME280;63074;44.696;10.358;2023-05-07T03:55:53;99976.19;;;15.81;100.00
74524;BME280;63074;44.696;10.358;2023-05-07T03:58:19;99978.63;;;15.73;100.00
74524;BME280;63074;44.696;10.358;2023-05-07T04:00:45;99982.44;;;15.77;100.00
74524;BME280;63074;44.696;10.358;2023-05-07T04:03:12;99978.91;;;15.81;100.00
74524;BME280;63074;44.696;10.358;2023-05-07T04:05:38;99985.91;;;15.52;100.00
74524;BME280;63074;44.696;10.358;2023-05-07T04:08:04;99986.38;;;15.18;100.00
74524;BME280;63074;44.696;10.358;2023-05-07T04:10:31;99994.56;;;15.49;100.00
74524;BME280;63074;44.696;10.358;2023-05-07T04:12:57;99988.38;;;15.79;100.00
74524;BME280;63074;44.696;10.358;2023-05-07T04:15:24;99988.13;;;15.85;100.00
74524;BME280;63074;44.696;10.358;2023-05-07T04:17:50;99992.16;;;15.88;100.00
74524;BME280;63074;44.696;10.358;2023-05-07T04:20:17;99997.88;;;15.76;100.00
74524;BME280;63074;44.696;10.358;2023-05-07T04:22:43;99999.75;;;15.96;100.00
74524;BME280;63074;44.696;10.358;2023-05-07T04:25:10;100001.91;;;16.09;100.00
74524;BME280;63074;44.696;10.358;2023-05-07T04:27:36;99997.59;;;15.93;100.00
74524;BME280;63074;44.696;10.358;2023-05-07T04:30:04;99998.66;;;15.92;100.00
74524;BME280;63074;44.696;10.358;2023-05-07T04:32:30;100001.13;;;15.78;100.00
74524;BME280;63074;44.696;10.358;2023-05-07T04:34:57;100002.16;;;15.52;100.00
74524;BME280;63074;44.696;10.358;2023-05-07T04:37:24;100003.81;;;15.68;100.00
74524;BME280;63074;44.696;10.358;2023-05-07T04:39:51;100000.59;;;15.81;100.00
74524;BME280;63074;44.696;10.358;2023-05-07T04:42:17;99997.88;;;15.81;100.00
74524;BME280;63074;44.696;10.358;2023-05-07T04:44:45;100006.81;;;15.72;100.00
74524;BME280;63074;44.696;10.358;2023-05-07T04:47:12;100008.16;;;16.00;100.00
74524;BME280;63074;44.696;10.358;2023-05-07T04:49:38;100009.78;;;15.96;100.00
74524;BME280;63074;44.696;10.358;2023-05-07T04:52:05;100012.50;;;16.16;100.00
74524;BME280;63074;44.696;10.358;2023-05-07T04:54:31;100019.50;;;16.22;100.00
74524;BME280;63074;44.696;10.358;2023-05-07T04:56:57;100015.19;;;16.26;100.00
74524;BME280;63074;44.696;10.358;2023-05-07T04:59:24;100020.63;;;16.16;100.00
74524;BME280;63074;44.696;10.358;2023-05-07T05:01:50;100030.38;;;16.07;100.00
74524;BME280;63074;44.696;10.358;2023-05-07T05:04:16;100037.41;;;16.18;100.00
74524;BME280;63074;44.696;10.358;2023-05-07T05:06:42;100042.31;;;16.11;100.00
74524;BME280;63074;44.696;10.358;2023-05-07T05:09:08;100040.94;;;16.34;100.00
74524;BME280;63074;44.696;10.358;2023-05-07T05:11:34;100048.53;;;16.21;100.00
74524;BME280;63074;44.696;10.358;2023-05-07T05:14:01;100037.13;;;16.30;100.00
74524;BME280;63074;44.696;10.358;2023-05-07T05:16:28;100040.94;;;16.34;100.00
74524;BME280;63074;44.696;10.358;2023-05-07T05:18:54;100043.63;;;16.34;100.00
74524;BME280;63074;44.696;10.358;2023-05-07T05:21:21;100044.66;;;16.63;100.00
74524;BME280;63074;44.696;10.358;2023-05-07T05:23:47;100051.19;;;16.67;100.00
74524;BME280;63074;44.696;10.358;2023-05-07T05:26:13;100045.47;;;16.79;100.00
74524;BME280;63074;44.696;10.358;2023-05-07T05:28:39;100047.63;;;16.82;100.00
74524;BME280;63074;44.696;10.358;2023-05-07T05:31:06;100048.72;;;16.81;100.00
74524;BME280;63074;44.696;10.358;2023-05-07T05:33:32;100048.97;;;16.84;100.00
74524;BME280;63074;44.696;10.358;2023-05-07T05:35:58;100043.81;;;16.83;100.00
74524;BME280;63074;44.696;10.358;2023-05-07T05:38:24;100039.44;;;16.97;100.00
74524;BME280;63074;44.696;10.358;2023-05-07T05:40:51;100053.03;;;16.92;100.00
74524;BME280;63074;44.696;10.358;2023-05-07T05:43:17;100052.47;;;16.95;100.00
74524;BME280;63074;44.696;10.358;2023-05-07T05:45:44;100042.09;;;17.07;100.00
74524;BME280;63074;44.696;10.358;2023-05-07T05:48:10;100038.25;;;17.13;100.00
74524;BME280;63074;44.696;10.358;2023-05-07T05:50:36;100039.31;;;17.23;100.00
74524;BME280;63074;44.696;10.358;2023-05-07T05:53:02;100033.25;;;17.36;100.00
74524;BME280;63074;44.696;10.358;2023-05-07T05:55:29;100031.59;;;17.40;100.00
74524;BME280;63074;44.696;10.358;2023-05-07T05:57:55;100042.69;;;17.48;100.00
74524;BME280;63074;44.696;10.358;2023-05-07T06:00:23;100033.19;;;17.51;100.00
74524;BME280;63074;44.696;10.358;2023-05-07T06:02:49;100034.44;;;17.69;100.00
74524;BME280;63074;44.696;10.358;2023-05-07T06:05:15;100030.72;;;17.54;100.00
74524;BME280;63074;44.696;10.358;2023-05-07T06:07:42;100030.44;;;17.56;100.00
74524;BME280;63074;44.696;10.358;2023-05-07T06:10:08;100030.41;;;17.61;100.00
74524;BME280;63074;44.696;10.358;2023-05-07T06:12:34;100034.63;;;17.82;100.00
74524;BME280;63074;44.696;10.358;2023-05-07T06:15:00;100033.25;;;17.85;100.00
74524;BME280;63074;44.696;10.358;2023-05-07T06:17:27;100031.53;;;17.94;100.00
74524;BME280;63074;44.696;10.358;2023-05-07T06:19:53;100036.94;;;17.99;100.00
74524;BME280;63074;44.696;10.358;2023-05-07T06:22:20;100037.88;;;17.84;100.00
74524;BME280;63074;44.696;10.358;2023-05-07T06:24:46;100040.41;;;18.05;100.00
74524;BME280;63074;44.696;10.358;2023-05-07T06:27:13;100048.78;;;18.13;100.00
74524;BME280;63074;44.696;10.358;2023-05-07T06:29:39;100039.81;;;17.79;100.00
74524;BME280;63074;44.696;10.358;2023-05-07T06:32:12;100041.38;;;17.90;100.00
74524;BME280;63074;44.696;10.358;2023-05-07T06:34:40;100043.81;;;18.20;100.00
74524;BME280;63074;44.696;10.358;2023-05-07T06:37:07;100030.97;;;18.26;100.00
74524;BME280;63074;44.696;10.358;2023-05-07T06:39:34;100043.06;;;18.44;100.00
74524;BME280;63074;44.696;10.358;2023-05-07T06:42:03;100031.00;;;18.50;100.00
74524;BME280;63074;44.696;10.358;2023-05-07T06:44:30;100027.75;;;18.48;100.00
74524;BME280;63074;44.696;10.358;2023-05-07T06:46:57;100034.41;;;18.37;100.00
74524;BME280;63074;44.696;10.358;2023-05-07T06:49:23;100029.22;;;18.40;100.00
74524;BME280;63074;44.696;10.358;2023-05-07T06:51:55;100028.88;;;18.47;100.00
74524;BME280;63074;44.696;10.358;2023-05-07T06:54:21;100025.63;;;18.74;100.00
74524;BME280;63074;44.696;10.358;2023-05-07T06:56:48;100041.88;;;18.79;100.00
74524;BME280;63074;44.696;10.358;2023-05-07T06:59:14;100039.34;;;18.87;100.00
74524;BME280;63074;44.696;10.358;2023-05-07T07:01:40;100034.84;;;19.20;100.00
74524;BME280;63074;44.696;10.358;2023-05-07T07:04:07;100038.97;;;19.18;100.00
74524;BME280;63074;44.696;10.358;2023-05-07T07:06:33;100038.97;;;19.37;100.00
74524;BME280;63074;44.696;10.358;2023-05-07T07:09:00;100049.97;;;19.32;100.00
74524;BME280;63074;44.696;10.358;2023-05-07T07:11:26;100048.88;;;19.51;100.00
74524;BME280;63074;44.696;10.358;2023-05-07T07:13:52;100027.31;;;19.55;100.00
74524;BME280;63074;44.696;10.358;2023-05-07T07:16:21;100037.22;;;19.46;100.00
74524;BME280;63074;44.696;10.358;2023-05-07T07:18:47;100055.31;;;19.37;100.00
74524;BME280;63074;44.696;10.358;2023-05-07T07:21:13;100052.44;;;19.52;100.00
74524;BME280;63074;44.696;10.358;2023-05-07T07:23:39;100043.38;;;19.57;100.00
74524;BME280;63074;44.696;10.358;2023-05-07T07:26:06;100047.16;;;19.93;100.00
74524;BME280;63074;44.696;10.358;2023-05-07T07:28:32;100046.03;;;19.94;100.00
74524;BME280;63074;44.696;10.358;2023-05-07T07:30:58;100036.88;;;19.71;100.00
74524;BME280;63074;44.696;10.358;2023-05-07T07:33:25;100042.47;;;19.80;100.00
74524;BME280;63074;44.696;10.358;2023-05-07T07:35:51;100028.03;;;19.79;100.00
74524;BME280;63074;44.696;10.358;2023-05-07T07:38:17;100033.84;;;19.92;100.00
74524;BME280;63074;44.696;10.358;2023-05-07T07:40:43;100033.19;;;19.81;100.00
74524;BME280;63074;44.696;10.358;2023-05-07T07:43:10;100045.28;;;20.07;100.00
74524;BME280;63074;44.696;10.358;2023-05-07T07:45:36;100044.75;;;19.92;100.00
74524;BME280;63074;44.696;10.358;2023-05-07T07:48:02;100041.41;;;19.95;100.00
74524;BME280;63074;44.696;10.358;2023-05-07T07:50:28;100042.13;;;20.19;100.00
74524;BME280;63074;44.696;10.358;2023-05-07T07:52:54;100040.41;;;20.37;100.00
74524;BME280;63074;44.696;10.358;2023-05-07T07:55:22;100056.66;;;20.14;100.00
74524;BME280;63074;44.696;10.358;2023-05-07T07:57:49;100039.41;;;20.33;100.00
74524;BME280;63074;44.696;10.358;2023-05-07T08:00:16;100039.19;;;20.29;100.00
74524;BME280;63074;44.696;10.358;2023-05-07T08:02:43;100036.63;;;20.51;100.00
74524;BME280;63074;44.696;10.358;2023-05-07T08:05:09;100049.81;;;20.77;100.00
74524;BME280;63074;44.696;10.358;2023-05-07T08:07:36;100060.31;;;20.97;100.00
74524;BME280;63074;44.696;10.358;2023-05-07T08:10:03;100055.97;;;20.69;100.00
74524;BME280;63074;44.696;10.358;2023-05-07T08:12:29;100045.97;;;20.92;100.00
74524;BME280;63074;44.696;10.358;2023-05-07T08:14:56;100055.97;;;20.96;100.00
74524;BME280;63074;44.696;10.358;2023-05-07T08:17:22;100052.25;;;20.78;100.00
74524;BME280;63074;44.696;10.358;2023-05-07T08:19:49;100046.38;;;20.71;100.00
74524;BME280;63074;44.696;10.358;2023-05-07T08:22:15;100054.81;;;20.56;100.00
74524;BME280;63074;44.696;10.358;2023-05-07T08:24:41;100045.84;;;20.55;100.00
74524;BME280;63074;44.696;10.358;2023-05-07T08:27:07;100049.66;;;20.54;100.00
74524;BME280;63074;44.696;10.358;2023-05-07T08:29:34;100049.59;;;20.73;100.00
74524;BME280;63074;44.696;10.358;2023-05-07T08:32:00;100046.28;;;21.04;100.00
74524;BME280;63074;44.696;10.358;2023-05-07T08:34:26;100032.00;;;21.07;100.00
74524;BME280;63074;44.696;10.358;2023-05-07T08:36:52;100041.59;;;20.90;100.00
74524;BME280;63074;44.696;10.358;2023-05-07T08:39:18;100056.06;;;21.18;100.00
74524;BME280;63074;44.696;10.358;2023-05-07T08:41:45;100042.47;;;21.41;100.00
74524;BME280;63074;44.696;10.358;2023-05-07T08:44:13;100052.13;;;20.83;100.00
74524;BME280;63074;44.696;10.358;2023-05-07T08:46:42;100054.56;;;20.99;100.00
74524;BME280;63074;44.696;10.358;2023-05-07T08:49:12;100046.16;;;21.22;100.00
74524;BME280;63074;44.696;10.358;2023-05-07T08:51:39;100052.50;;;21.18;100.00
74524;BME280;63074;44.696;10.358;2023-05-07T08:54:06;100054.16;;;21.33;100.00
74524;BME280;63074;44.696;10.358;2023-05-07T08:56:33;100031.28;;;21.29;100.00
74524;BME280;63074;44.696;10.358;2023-05-07T08:58:59;100034.66;;;21.62;100.00
74524;BME280;63074;44.696;10.358;2023-05-07T09:01:26;100039.00;;;21.63;100.00
74524;BME280;63074;44.696;10.358;2023-05-07T09:03:52;100048.63;;;21.60;100.00
74524;BME280;63074;44.696;10.358;2023-05-07T09:06:19;100034.88;;;21.74;100.00
74524;BME280;63074;44.696;10.358;2023-05-07T09:08:53;100049.53;;;21.92;100.00
74524;BME280;63074;44.696;10.358;2023-05-07T09:11:23;100060.09;;;22.07;100.00
74524;BME280;63074;44.696;10.358;2023-05-07T09:13:54;100057.28;;;21.98;100.00
74524;BME280;63074;44.696;10.358;2023-05-07T09:16:22;100065.84;;;22.19;100.00
74524;BME280;63074;44.696;10.358;2023-05-07T09:18:51;100043.75;;;22.15;100.00
74524;BME280;63074;44.696;10.358;2023-05-07T09:21:19;100047.44;;;22.11;100.00
74524;BME280;63074;44.696;10.358;2023-05-07T09:23:47;100060.22;;;22.55;100.00
74524;BME280;63074;44.696;10.358;2023-05-07T09:26:14;100047.25;;;22.69;100.00
74524;BME280;63074;44.696;10.358;2023-05-07T09:28:41;100047.03;;;22.26;100.00
74524;BME280;63074;44.696;10.358;2023-05-07T09:31:11;100048.25;;;22.42;100.00
74524;BME280;63074;44.696;10.358;2023-05-07T09:33:39;100052.81;;;22.86;100.00
74524;BME280;63074;44.696;10.358;2023-05-07T09:36:06;100058.53;;;22.68;100.00
74524;BME280;63074;44.696;10.358;2023-05-07T09:38:33;100073.84;;;23.00;100.00
74524;BME280;63074;44.696;10.358;2023-05-07T09:41:18;100051.78;;;22.74;100.00
74524;BME280;63074;44.696;10.358;2023-05-07T09:43:44;100049.03;;;23.05;100.00
74524;BME280;63074;44.696;10.358;2023-05-07T09:46:14;100060.34;;;23.20;100.00
74524;BME280;63074;44.696;10.358;2023-05-07T09:48:43;100039.25;;;23.47;100.00
74524;BME280;63074;44.696;10.358;2023-05-07T09:51:25;100086.13;;;23.94;95.96
74524;BME280;63074;44.696;10.358;2023-05-07T09:53:57;100083.19;;;23.55;99.84
74524;BME280;63074;44.696;10.358;2023-05-07T09:56:26;100056.41;;;23.78;100.00
74524;BME280;63074;44.696;10.358;2023-05-07T09:58:54;100054.94;;;22.89;100.00
74524;BME280;63074;44.696;10.358;2023-05-07T10:01:22;100064.00;;;23.81;99.47
74524;BME280;63074;44.696;10.358;2023-05-07T10:03:50;100056.13;;;23.06;100.00
74524;BME280;63074;44.696;10.358;2023-05-07T10:06:17;100066.69;;;23.38;100.00
74524;BME280;63074;44.696;10.358;2023-05-07T10:08:45;100069.25;;;23.35;98.57
74524;BME280;63074;44.696;10.358;2023-05-07T10:11:12;100081.09;;;23.61;95.05
74524;BME280;63074;44.696;10.358;2023-05-07T10:13:38;100080.59;;;24.02;94.88
74524;BME280;63074;44.696;10.358;2023-05-07T10:16:05;100092.47;;;24.67;92.29
74524;BME280;63074;44.696;10.358;2023-05-07T10:18:32;100087.06;;;24.15;92.68
74524;BME280;63074;44.696;10.358;2023-05-07T10:21:10;100070.44;;;24.20;95.94
74524;BME280;63074;44.696;10.358;2023-05-07T10:23:42;100070.59;;;24.23;96.95
74524;BME280;63074;44.696;10.358;2023-05-07T10:26:11;100074.84;;;24.68;92.84
74524;BME280;63074;44.696;10.358;2023-05-07T10:28:41;100086.41;;;24.09;91.60
74524;BME280;63074;44.696;10.358;2023-05-07T10:31:11;100070.09;;;24.21;92.54
74524;BME280;63074;44.696;10.358;2023-05-07T10:33:43;100092.56;;;23.98;86.81
74524;BME280;63074;44.696;10.358;2023-05-07T10:36:11;100087.19;;;24.53;87.52
74524;BME280;63074;44.696;10.358;2023-05-07T10:38:38;100090.28;;;24.34;84.76
74524;BME280;63074;44.696;10.358;2023-05-07T10:41:06;100076.88;;;24.41;92.34
74524;BME280;63074;44.696;10.358;2023-05-07T10:43:43;100066.75;;;23.81;92.27
74524;BME280;63074;44.696;10.358;2023-05-07T10:46:20;100054.78;;;23.77;94.66
74524;BME280;63074;44.696;10.358;2023-05-07T10:51:29;100054.31;;;23.67;92.78
74524;BME280;63074;44.696;10.358;2023-05-07T10:56:40;100037.69;;;23.89;95.38
74524;BME280;63074;44.696;10.358;2023-05-07T11:01:53;100056.72;;;24.03;92.01
74524;BME280;63074;44.696;10.358;2023-05-07T11:04:23;100057.00;;;24.36;89.83
74524;BME280;63074;44.696;10.358;2023-05-07T11:15:11;100058.81;;;24.14;87.57
74524;BME280;63074;44.696;10.358;2023-05-07T11:17:54;100048.81;;;24.10;88.54
74524;BME280;63074;44.696;10.358;2023-05-07T11:20:21;100040.66;;;24.48;94.14
74524;BME280;63074;44.696;10.358;2023-05-07T11:23:54;100044.56;;;24.47;90.99
74524;BME280;63074;44.696;10.358;2023-05-07T11:28:40;100067.81;;;24.41;85.65
74524;BME280;63074;44.696;10.358;2023-05-07T11:31:07;100063.81;;;24.21;87.08
74524;BME280;63074;44.696;10.358;2023-05-07T11:33:35;100053.97;;;24.03;89.67
74524;BME280;63074;44.696;10.358;2023-05-07T11:36:03;100059.13;;;24.04;88.01
74524;BME280;63074;44.696;10.358;2023-05-07T11:38:30;100058.81;;;23.97;89.07
74524;BME280;63074;44.696;10.358;2023-05-07T11:41:00;100056.88;;;24.23;87.36
74524;BME280;63074;44.696;10.358;2023-05-07T11:43:27;100061.56;;;24.78;83.03
74524;BME280;63074;44.696;10.358;2023-05-07T11:45:54;100064.34;;;24.70;83.38
74524;BME280;63074;44.696;10.358;2023-05-07T11:48:22;100077.56;;;24.76;85.36
74524;BME280;63074;44.696;10.358;2023-05-07T11:53:28;100076.81;;;25.64;82.82
74524;BME280;63074;44.696;10.358;2023-05-07T11:56:01;100063.53;;;25.66;80.02
74524;BME280;63074;44.696;10.358;2023-05-07T11:58:31;100072.81;;;24.94;86.86
74524;BME280;63074;44.696;10.358;2023-05-07T12:00:58;100020.28;;;24.87;90.30
74524;BME280;63074;44.696;10.358;2023-05-07T12:03:24;100049.66;;;25.54;86.04
74524;BME280;63074;44.696;10.358;2023-05-07T12:05:50;100051.56;;;26.37;83.99
74524;BME280;63074;44.696;10.358;2023-05-07T12:08:17;100043.00;;;26.30;85.48
74524;BME280;63074;44.696;10.358;2023-05-07T12:10:45;100037.69;;;26.45;89.25
74524;BME280;63074;44.696;10.358;2023-05-07T12:13:21;100028.66;;;25.70;90.73
74524;BME280;63074;44.696;10.358;2023-05-07T12:15:51;100033.41;;;26.03;89.29
74524;BME280;63074;44.696;10.358;2023-05-07T12:18:17;100045.53;;;25.89;86.39
74524;BME280;63074;44.696;10.358;2023-05-07T12:20:44;100057.81;;;25.71;86.14
74524;BME280;63074;44.696;10.358;2023-05-07T12:23:11;100056.28;;;26.15;85.03
74524;BME280;63074;44.696;10.358;2023-05-07T12:25:41;100042.06;;;26.46;90.38
74524;BME280;63074;44.696;10.358;2023-05-07T12:28:18;100061.47;;;26.50;84.33
74524;BME280;63074;44.696;10.358;2023-05-07T12:30:48;100058.84;;;26.53;82.12
74524;BME280;63074;44.696;10.358;2023-05-07T12:33:18;100078.13;;;26.53;82.33
74524;BME280;63074;44.696;10.358;2023-05-07T12:35:47;100080.88;;;26.53;80.15
74524;BME280;63074;44.696;10.358;2023-05-07T12:38:16;100076.41;;;26.28;82.81
74524;BME280;63074;44.696;10.358;2023-05-07T12:40:47;100073.53;;;26.24;78.54
74524;BME280;63074;44.696;10.358;2023-05-07T12:43:27;100071.53;;;26.13;75.05
74524;BME280;63074;44.696;10.358;2023-05-07T12:45:56;100083.72;;;26.57;77.86
74524;BME280;63074;44.696;10.358;2023-05-07T12:48:23;100073.50;;;27.03;75.92
74524;BME280;63074;44.696;10.358;2023-05-07T12:50:53;100084.56;;;26.70;75.24
74524;BME280;63074;44.696;10.358;2023-05-07T12:53:25;100084.19;;;27.04;75.60
74524;BME280;63074;44.696;10.358;2023-05-07T12:55:53;100075.00;;;27.12;75.55
74524;BME280;63074;44.696;10.358;2023-05-07T12:58:27;100074.91;;;28.01;73.16